Aérodrome :
LOGIN :

S'inscrire | Disclaimer

   EN    FR    IT 

 










Légende :    VFR   VFR Marginal   IFR   IFR Intensif   IFR Très Intensif
Visi : 
Plafond : 
>= 8 km
>= 3000ft
5 à 8 km
1000 à 3000 ft
1500m à 5 km
500 à 1000 ft
800 à 1500m
200 à 500 ft
< 800m
< 200 ft
Symboles :   Orages  Brouillard  Fortes neiges  Fortes précipitations  Vent > 20 kt
SIGMETs :   Divers  Orages  Givrage  Turbulence  Onde Orograph.  Cendres Volcan.






- Altitude de l'aérodrome : 640 ft
- Code IATA : AOC


EDAC - Altenburg-Nobitz

DERNIER METAR :
  • 212320Z AUTO VRB01KT 9999 // FEW055/// BKN150/// 01/M01 Q1023

METARs EXPIRÉS :
  • 212250Z AUTO 02002KT 9999 // BKN073/// OVC086/// 02/M00 Q1023
  • 212220Z AUTO 03002KT 9999 // SCT065/// OVC083/// 03/M00 Q1023
  • 212150Z AUTO 03002KT 9999 // OVC061/// 03/M01 Q1023
  • 212120Z AUTO 03003KT 9999 // BKN066/// 04/M00 Q1023
  • 212050Z AUTO 03005KT 9999 // BKN060/// BKN069/// 04/M01 Q1023
  • 212020Z AUTO 02004KT 9999 // BKN048/// OVC072/// 04/M01 Q1023
  • 211950Z AUTO 03002KT 9999 // FEW054/// BKN062/// OVC079/// 04/M01 Q1022
  • 211920Z AUTO 03002KT 9999 // FEW051/// BKN077/// 04/M02 Q1022
  • 211850Z AUTO 03005KT 9999 // SCT049/// BKN076/// 04/M02 Q1022

TAF TAF EDAC
Valide du 21 à 18h jusqu'au 22 à 03h UTC


211700Z 2118/2203 04008KT CAVOK
BECMG 2118/2121 VRB03KT
TEMPO 2200/2203 BKN008



MET'MAP, la Météo Aéronautique d'un coup d'oeil ! - Copyright ORBIFLY Décembre 2007 - Disclaimer

ORBIFLY MET'MAP TEAM :

Programmation & Développement : Alexandra Zaïnal
Sur une idée originale de : Baudouin d'Aumeries
Soutien technique & logistique : Manuel Goepfert
Assistance : Marc-Olivier Méhu




SOURCES & CREDITS :

   NOAA